Time;durP1;ratioP1;P1;durP2;ratioP2;P2;SDS_P1;SDS_P2;PMS_P1;PMS_P2;Temp;Humidity;BMP_temperature;BMP_pressure;BME280_temperature;BME280_humidity;BME280_pressure;Samples;Min_cycle;Max_cycle;Signal;HPM_P1;HPM_P2
2023/09/17 00:01:25;;;;;;;21.15;19.15;;;;;;;17.83;100.00;101234.34;5035985;28;20034;-76
2023/09/17 00:03:51;;;;;;;21.92;19.83;;;;;;;17.84;100.00;101238.69;5047601;28;20037;-80
2023/09/17 00:06:17;;;;;;;20.92;18.77;;;;;;;17.81;100.00;101239.00;5028609;28;20028;-76
2023/09/17 00:08:43;;;;;;;20.33;18.45;;;;;;;17.82;100.00;101222.88;5029619;28;20030;-79
2023/09/17 00:11:08;;;;;;;20.35;18.25;;;;;;;17.79;100.00;101230.31;5029900;28;20032;-80
2023/09/17 00:13:35;;;;;;;18.38;16.58;;;;;;;17.77;100.00;101230.47;5028221;28;20290;-80
2023/09/17 00:16:01;;;;;;;17.95;16.13;;;;;;;17.75;100.00;101223.63;5028750;28;20504;-80
2023/09/17 00:18:26;;;;;;;17.25;15.55;;;;;;;17.76;100.00;101225.31;5028685;28;20104;-79
2023/09/17 00:20:52;;;;;;;16.58;15.07;;;;;;;17.74;100.00;101229.94;5026589;28;20428;-76
2023/09/17 00:23:17;;;;;;;16.92;14.80;;;;;;;17.74;100.00;101227.28;5027069;28;20032;-76
2023/09/17 00:25:42;;;;;;;16.13;14.52;;;;;;;17.72;100.00;101231.91;5030304;28;20037;-76
2023/09/17 00:28:09;;;;;;;16.00;14.35;;;;;;;17.68;100.00;101233.22;5029159;28;20037;-76
2023/09/17 00:30:34;;;;;;;14.82;13.27;;;;;;;17.64;100.00;101229.97;5009198;28;20033;-79
2023/09/17 00:33:00;;;;;;;14.90;12.90;;;;;;;17.62;100.00;101228.47;5008241;28;20028;-80
2023/09/17 00:35:25;;;;;;;13.93;12.63;;;;;;;17.58;100.00;101237.69;5007263;28;20030;-76
2023/09/17 00:37:51;;;;;;;14.13;12.68;;;;;;;17.55;100.00;101229.03;5008427;28;20025;-76
2023/09/17 00:40:17;;;;;;;13.50;12.20;;;;;;;17.49;100.00;101232.28;5010048;28;20128;-76
2023/09/17 00:42:42;;;;;;;13.30;12.05;;;;;;;17.44;100.00;101231.91;5013076;28;20046;-76
2023/09/17 00:45:09;;;;;;;13.15;11.95;;;;;;;17.40;100.00;101230.53;5012739;28;20486;-76
2023/09/17 00:47:34;;;;;;;13.10;11.80;;;;;;;17.39;100.00;101228.84;5012983;28;20033;-79
2023/09/17 00:50:02;;;;;;;13.23;11.93;;;;;;;17.33;100.00;101228.63;5013927;28;20072;-76
2023/09/17 00:52:28;;;;;;;13.98;12.38;;;;;;;17.27;100.00;101224.72;5013631;28;20445;-76
2023/09/17 00:54:55;;;;;;;13.23;11.98;;;;;;;17.23;100.00;101229.50;5026360;28;20079;-77
2023/09/17 00:57:21;;;;;;;14.10;12.52;;;;;;;17.16;100.00;101222.25;5050557;28;20036;-77
2023/09/17 00:59:47;;;;;;;14.25;12.80;;;;;;;17.11;100.00;101213.88;5033320;28;20056;-75
2023/09/17 01:02:20;;;;;;;14.15;12.73;;;;;;;17.08;100.00;101220.31;5033680;28;20091;-78
2023/09/17 01:04:49;;;;;;;13.98;12.57;;;;;;;17.06;100.00;101211.66;5033567;28;20029;-77
2023/09/17 01:07:19;;;;;;;14.88;13.30;;;;;;;17.00;100.00;101216.72;5032055;28;20612;-76
2023/09/17 01:09:45;;;;;;;14.38;12.88;;;;;;;16.94;100.00;101209.34;5032080;28;20025;-78
2023/09/17 01:12:12;;;;;;;15.23;13.65;;;;;;;16.89;100.00;101215.09;5032428;28;20021;-76
2023/09/17 01:14:38;;;;;;;15.60;13.90;;;;;;;16.85;100.00;101209.22;5032575;28;20029;-76
2023/09/17 01:17:07;;;;;;;14.95;13.55;;;;;;;16.80;100.00;101216.78;5031674;28;20037;-76
2023/09/17 01:19:34;;;;;;;15.13;13.60;;;;;;;16.77;100.00;101211.75;5032611;28;20068;-76
2023/09/17 01:22:09;;;;;;;15.75;14.27;;;;;;;16.70;100.00;101202.69;5031793;28;20037;-77
2023/09/17 01:24:54;;;;;;;16.60;14.93;;;;;;;16.61;100.00;101207.00;5032376;28;20056;-77
2023/09/17 01:27:20;;;;;;;17.15;15.40;;;;;;;16.54;100.00;101192.63;5032312;28;20040;-77
2023/09/17 01:29:49;;;;;;;17.73;15.70;;;;;;;16.43;100.00;101190.16;5017049;28;20022;-80
2023/09/17 01:32:16;;;;;;;17.35;15.73;;;;;;;16.37;100.00;101190.69;5013013;28;20032;-80
2023/09/17 01:34:49;;;;;;;17.30;15.68;;;;;;;16.29;100.00;101194.06;5027512;28;20033;-80
2023/09/17 01:37:23;;;;;;;17.73;15.98;;;;;;;16.23;100.00;101185.84;5010018;28;20034;-77
2023/09/17 01:40:15;;;;;;;18.27;16.35;;;;;;;16.19;100.00;101184.44;5011710;28;20026;-77
2023/09/17 01:42:46;;;;;;;21.90;17.85;;;;;;;16.13;100.00;101179.69;5009213;28;20167;-77
2023/09/17 01:45:13;;;;;;;19.45;17.65;;;;;;;16.09;100.00;101176.50;5011107;28;20053;-76
2023/09/17 01:47:42;;;;;;;18.52;16.77;;;;;;;16.02;100.00;101167.44;5011313;28;20428;-76
2023/09/17 01:50:08;;;;;;;18.60;16.70;;;;;;;15.99;100.00;101173.81;5012421;28;20022;-76
2023/09/17 01:52:34;;;;;;;19.20;17.02;;;;;;;15.94;100.00;101170.75;5011359;28;20021;-80
2023/09/17 01:55:03;;;;;;;19.42;17.58;;;;;;;15.91;100.00;101167.53;5022272;28;20398;-77
2023/09/17 01:57:31;;;;;;;18.65;16.92;;;;;;;15.90;100.00;101157.91;5031863;28;20029;-76
2023/09/17 01:59:56;;;;;;;21.60;18.33;;;;;;;15.88;100.00;101157.22;5031410;28;20025;-76
2023/09/17 02:02:22;;;;;;;19.58;17.63;;;;;;;15.87;100.00;101153.72;5032168;28;20021;-76
2023/09/17 02:04:48;;;;;;;19.55;17.55;;;;;;;15.84;100.00;101153.16;5047829;28;20064;-80
2023/09/17 02:07:15;;;;;;;20.20;18.25;;;;;;;15.84;100.00;101159.31;5046565;28;20053;-80
2023/09/17 02:09:40;;;;;;;19.95;17.95;;;;;;;15.83;100.00;101162.09;5031632;28;20021;-79
2023/09/17 02:12:11;;;;;;;20.88;18.70;;;;;;;15.81;100.00;101164.06;5031774;28;20075;-77
2023/09/17 02:14:36;;;;;;;20.58;18.58;;;;;;;15.86;100.00;101164.47;5032053;28;20130;-79
2023/09/17 02:17:03;;;;;;;21.40;19.13;;;;;;;15.85;100.00;101165.47;5032397;28;20029;-77
2023/09/17 02:19:28;;;;;;;20.83;18.75;;;;;;;15.82;100.00;101169.22;5031035;28;20032;-76
2023/09/17 02:21:55;;;;;;;21.60;19.40;;;;;;;15.85;100.00;101157.50;5031894;28;20021;-75
2023/09/17 02:24:20;;;;;;;21.85;19.77;;;;;;;15.85;100.00;101165.47;5031744;28;20152;-76
2023/09/17 02:26:46;;;;;;;23.95;21.45;;;;;;;15.86;100.00;101157.34;5030086;28;20041;-75
2023/09/17 02:29:13;;;;;;;23.15;20.85;;;;;;;15.86;100.00;101148.56;5021144;28;20025;-79
2023/09/17 02:31:38;;;;;;;24.77;22.30;;;;;;;15.86;100.00;101151.22;5010945;28;20018;-79
2023/09/17 02:34:04;;;;;;;24.98;22.33;;;;;;;15.87;100.00;101142.28;5010174;28;20248;-75
2023/09/17 02:36:31;;;;;;;25.30;22.73;;;;;;;15.87;100.00;101152.88;5011206;28;20037;-75
2023/09/17 02:38:56;;;;;;;26.20;23.50;;;;;;;15.87;100.00;101144.91;5010699;28;20129;-76
2023/09/17 02:41:22;;;;;;;26.38;23.88;;;;;;;15.86;100.00;101138.78;5010059;28;20465;-76
2023/09/17 02:43:48;;;;;;;26.70;23.92;;;;;;;15.90;100.00;101137.50;5010366;28;20387;-79
2023/09/17 02:46:18;;;;;;;26.20;23.70;;;;;;;15.90;100.00;101139.34;5009450;28;20367;-76
2023/09/17 02:48:43;;;;;;;27.33;24.52;;;;;;;15.89;100.00;101132.34;5010165;28;20028;-75
2023/09/17 02:51:08;;;;;;;27.65;24.95;;;;;;;15.87;100.00;101131.66;5010482;28;20108;-80
2023/09/17 02:53:34;;;;;;;26.52;23.73;;;;;;;15.88;100.00;101128.88;5010158;28;20091;-80
2023/09/17 02:55:59;;;;;;;26.77;24.17;;;;;;;15.87;100.00;101126.34;5026330;28;20021;-80
2023/09/17 02:58:25;;;;;;;27.50;24.80;;;;;;;15.86;100.00;101129.97;5030638;28;20441;-77
2023/09/17 03:00:51;;;;;;;27.55;24.85;;;;;;;15.84;100.00;101131.94;5030205;28;20033;-77
2023/09/17 03:03:16;;;;;;;27.70;24.75;;;;;;;15.82;100.00;101125.94;5029304;28;20383;-78
2023/09/17 03:05:46;;;;;;;28.42;25.10;;;;;;;15.80;100.00;101127.91;5031006;28;20056;-78
2023/09/17 03:08:12;;;;;;;27.67;24.67;;;;;;;15.74;100.00;101128.47;5031277;28;20029;-77
2023/09/17 03:10:42;;;;;;;28.05;24.38;;;;;;;15.66;100.00;101114.09;5028935;28;20083;-77
2023/09/17 03:13:12;;;;;;;27.05;24.33;;;;;;;15.58;100.00;101116.56;5030864;28;20104;-78
2023/09/17 03:15:38;;;;;;;27.80;24.90;;;;;;;15.57;100.00;101109.56;5030617;28;20060;-83
2023/09/17 03:18:04;;;;;;;28.33;25.33;;;;;;;15.52;100.00;101111.78;5030807;28;20052;-78
2023/09/17 03:20:33;;;;;;;27.48;24.77;;;;;;;15.45;100.00;101115.97;5031262;28;20124;-78
2023/09/17 03:23:04;;;;;;;27.13;24.25;;;;;;;15.41;100.00;101119.88;5029661;28;20032;-78
2023/09/17 03:25:33;;;;;;;28.83;25.85;;;;;;;15.40;100.00;101118.22;5030990;28;20084;-83
2023/09/17 03:28:01;;;;;;;27.20;24.25;;;;;;;15.37;100.00;101118.50;5029927;28;20091;-77
2023/09/17 03:30:28;;;;;;;26.77;24.10;;;;;;;15.30;100.00;101114.72;5029222;28;20025;-77
2023/09/17 03:32:53;;;;;;;27.15;24.38;;;;;;;15.28;100.00;101116.66;5029954;28;20056;-77
2023/09/17 03:35:19;;;;;;;27.08;24.45;;;;;;;15.24;100.00;101123.22;5030193;28;20049;-77
2023/09/17 03:37:47;;;;;;;28.13;25.17;;;;;;;15.22;100.00;101122.53;5029660;28;20448;-76
2023/09/17 03:40:14;;;;;;;27.42;24.63;;;;;;;15.19;100.00;101126.25;5031150;28;20029;-83
2023/09/17 03:42:47;;;;;;;28.48;25.58;;;;;;;15.15;100.00;101122.19;5027265;28;20504;-83
2023/09/17 03:45:13;;;;;;;29.20;26.35;;;;;;;15.18;100.00;101126.38;5029134;28;20385;-77
2023/09/17 03:47:40;;;;;;;28.27;25.38;;;;;;;15.13;100.00;101121.50;5028682;28;20032;-77
2023/09/17 03:50:13;;;;;;;29.10;26.08;;;;;;;15.14;100.00;101115.22;5029154;28;20025;-84
2023/09/17 03:52:44;;;;;;;28.55;25.65;;;;;;;15.19;100.00;101120.13;5028589;28;20103;-83
2023/09/17 03:55:10;;;;;;;28.70;26.08;;;;;;;15.12;100.00;101119.81;5028590;28;20075;-77
2023/09/17 03:57:38;;;;;;;28.75;25.92;;;;;;;15.13;100.00;101115.38;5044412;28;20021;-77
2023/09/17 04:00:10;;;;;;;28.52;25.65;;;;;;;15.13;100.00;101120.66;5029544;28;20018;-77
2023/09/17 04:02:38;;;;;;;30.40;27.17;;;;;;;15.15;100.00;101126.66;5045170;28;20040;-77
2023/09/17 04:05:14;;;;;;;29.25;26.45;;;;;;;15.16;100.00;101121.22;5029348;28;20029;-77
2023/09/17 04:07:41;;;;;;;29.00;26.15;;;;;;;15.10;100.00;101116.47;5030413;28;20026;-77
2023/09/17 04:10:08;;;;;;;29.83;26.92;;;;;;;15.09;100.00;101113.97;5030378;28;20049;-77
2023/09/17 04:12:34;;;;;;;29.83;27.02;;;;;;;15.13;100.00;101121.50;5029426;28;20029;-77
2023/09/17 04:15:16;;;;;;;30.50;27.42;;;;;;;15.14;100.00;101119.69;5029693;28;20036;-76
2023/09/17 04:17:43;;;;;;;32.23;28.87;;;;;;;15.12;100.00;101111.88;5034053;28;20099;-83
2023/09/17 04:20:18;;;;;;;30.98;27.77;;;;;;;15.13;100.00;101115.38;5033330;28;20025;-77
2023/09/17 04:22:46;;;;;;;31.90;28.60;;;;;;;15.13;100.00;101110.06;5033584;28;20388;-77
2023/09/17 04:25:13;;;;;;;31.40;28.23;;;;;;;15.14;100.00;101109.94;5033280;28;20025;-77
2023/09/17 04:27:41;;;;;;;32.97;29.58;;;;;;;15.11;100.00;101110.19;5031123;28;20036;-77
2023/09/17 04:30:10;;;;;;;33.17;29.70;;;;;;;15.12;100.00;101109.22;5014785;28;20034;-77
2023/09/17 04:32:40;;;;;;;34.20;30.80;;;;;;;15.13;100.00;101115.38;5013805;28;20018;-77
2023/09/17 04:35:07;;;;;;;34.05;30.65;;;;;;;15.13;100.00;101110.91;5012060;28;20456;-76
2023/09/17 04:37:34;;;;;;;34.10;30.52;;;;;;;15.18;100.00;101107.84;5011891;28;20524;-77
2023/09/17 04:40:00;;;;;;;34.53;31.10;;;;;;;15.14;100.00;101107.28;5012673;28;20496;-76
2023/09/17 04:42:26;;;;;;;33.50;30.20;;;;;;;15.21;100.00;101111.09;5011668;28;20052;-76
2023/09/17 04:44:52;;;;;;;35.60;31.77;;;;;;;15.22;100.00;101106.63;5012348;28;20116;-82
2023/09/17 04:47:17;;;;;;;35.92;32.30;;;;;;;15.24;100.00;101104.66;5012344;28;20025;-76
2023/09/17 04:49:42;;;;;;;36.55;32.53;;;;;;;15.25;100.00;101099.22;5012485;28;20022;-76
2023/09/17 04:52:08;;;;;;;37.25;31.85;;;;;;;15.29;100.00;101105.09;5012832;28;20034;-76
2023/09/17 04:54:33;;;;;;;36.38;32.65;;;;;;;15.29;100.00;101099.78;5018021;28;20032;-76
2023/09/17 04:56:58;;;;;;;35.55;31.95;;;;;;;15.32;100.00;101099.50;5032105;28;20120;-76
2023/09/17 04:59:24;;;;;;;35.90;32.38;;;;;;;15.31;100.00;101106.63;5032034;28;20021;-76
2023/09/17 05:01:49;;;;;;;37.00;33.28;;;;;;;15.34;100.00;101101.03;5031692;28;20063;-76
2023/09/17 05:04:17;;;;;;;37.03;33.13;;;;;;;15.38;100.00;101103.41;5032426;28;20064;-76
2023/09/17 05:06:43;;;;;;;36.55;32.88;;;;;;;15.37;100.00;101102.59;5032937;28;20025;-75
2023/09/17 05:09:10;;;;;;;36.13;32.40;;;;;;;15.42;100.00;101108.31;5032465;28;20133;-83
2023/09/17 05:11:35;;;;;;;35.53;31.98;;;;;;;15.40;100.00;101107.59;5033141;28;20022;-76
2023/09/17 05:14:03;;;;;;;36.90;32.90;;;;;;;15.42;100.00;101100.34;5032640;28;20039;-76
2023/09/17 05:16:29;;;;;;;36.40;32.70;;;;;;;15.47;100.00;101111.38;5032019;28;20035;-76
2023/09/17 05:18:55;;;;;;;35.42;32.05;;;;;;;15.47;100.00;101116.69;5032681;28;20022;-83
2023/09/17 05:21:20;;;;;;;36.20;32.38;;;;;;;15.46;100.00;101111.50;5032589;28;20029;-76
2023/09/17 05:23:46;;;;;;;35.10;31.65;;;;;;;15.47;100.00;101108.72;5031796;28;20029;-76
2023/09/17 05:26:11;;;;;;;36.53;32.63;;;;;;;15.51;100.00;101110.13;5032829;28;20021;-82
2023/09/17 05:28:37;;;;;;;36.78;32.72;;;;;;;15.54;100.00;101114.31;5026984;28;20034;-76
2023/09/17 05:31:03;;;;;;;35.85;32.22;;;;;;;15.53;100.00;101113.47;5011351;28;20056;-82
2023/09/17 05:33:29;;;;;;;36.80;32.80;;;;;;;15.54;100.00;101115.13;5011582;28;20113;-82
2023/09/17 05:35:56;;;;;;;36.55;32.95;;;;;;;15.55;100.00;101114.16;5011839;28;20470;-77
2023/09/17 05:38:23;;;;;;;36.63;33.03;;;;;;;15.48;100.00;101115.69;5011180;28;20053;-76
2023/09/17 05:40:49;;;;;;;37.17;33.00;;;;;;;15.48;100.00;101113.06;5010323;28;20017;-76
2023/09/17 05:43:15;;;;;;;38.65;34.75;;;;;;;15.46;100.00;101117.66;5011445;28;20052;-76
2023/09/17 05:45:43;;;;;;;37.22;33.65;;;;;;;15.50;100.00;101121.69;5011330;28;20018;-76
2023/09/17 05:48:08;;;;;;;36.03;32.33;;;;;;;15.53;100.00;101117.94;5026852;28;20375;-82
2023/09/17 05:50:36;;;;;;;38.78;33.63;;;;;;;15.55;100.00;101116.81;5026788;28;20221;-76
2023/09/17 05:53:02;;;;;;;37.65;33.65;;;;;;;15.57;100.00;101121.97;5011292;28;20068;-82
2023/09/17 05:55:29;;;;;;;39.22;35.22;;;;;;;15.58;100.00;101116.56;5024877;28;20072;-82
2023/09/17 05:57:54;;;;;;;37.45;33.67;;;;;;;15.58;100.00;101115.72;5030611;28;20021;-82
2023/09/17 06:00:20;;;;;;;38.40;33.95;;;;;;;15.56;100.00;101113.19;5031443;28;20033;-82
2023/09/17 06:02:45;;;;;;;38.83;34.80;;;;;;;15.56;100.00;101107.88;5031066;28;20029;-76
2023/09/17 06:05:10;;;;;;;39.88;35.72;;;;;;;15.58;100.00;101105.97;5030504;28;20079;-76
2023/09/17 06:07:37;;;;;;;38.00;34.22;;;;;;;15.59;100.00;101102.34;5031521;28;20033;-76
2023/09/17 06:10:04;;;;;;;39.08;35.10;;;;;;;15.65;100.00;101107.09;5031801;28;20441;-76
2023/09/17 06:12:30;;;;;;;40.00;35.65;;;;;;;15.63;100.00;101109.06;5029843;28;20031;-76
2023/09/17 06:14:55;;;;;;;38.05;34.17;;;;;;;15.64;100.00;101117.84;5031240;28;20482;-76
2023/09/17 06:17:20;;;;;;;39.00;35.03;;;;;;;15.71;100.00;101124.28;5031783;28;20029;-76
2023/09/17 06:19:46;;;;;;;39.05;34.97;;;;;;;15.65;100.00;101117.72;5031173;28;20018;-76
2023/09/17 06:22:11;;;;;;;39.40;35.42;;;;;;;15.72;100.00;101122.47;5031640;28;20030;-76
2023/09/17 06:24:37;;;;;;;37.83;34.05;;;;;;;15.69;100.00;101118.28;5031687;28;20022;-76
2023/09/17 06:27:03;;;;;;;37.75;33.80;;;;;;;15.73;100.00;101119.66;5030739;28;20029;-76
2023/09/17 06:29:29;;;;;;;37.60;33.90;;;;;;;15.76;100.00;101121.19;5031163;28;20044;-76
2023/09/17 06:31:55;;;;;;;38.10;34.30;;;;;;;15.72;100.00;101119.81;5031360;28;20021;-82
2023/09/17 06:34:21;;;;;;;37.53;33.78;;;;;;;15.75;100.00;101116.88;5045955;28;20014;-83
2023/09/17 06:36:47;;;;;;;39.55;34.33;;;;;;;15.66;100.00;101119.38;5030330;28;20386;-77
2023/09/17 06:39:13;;;;;;;38.10;34.40;;;;;;;15.72;100.00;101122.47;5029736;28;20398;-76
2023/09/17 06:41:39;;;;;;;39.95;35.88;;;;;;;15.74;100.00;101126.66;5029012;28;20055;-76
2023/09/17 06:44:05;;;;;;;38.95;34.90;;;;;;;15.73;100.00;101119.66;5028943;28;20235;-82
2023/09/17 06:46:31;;;;;;;38.05;34.28;;;;;;;15.79;100.00;101112.94;5030844;28;20107;-77
2023/09/17 06:48:57;;;;;;;39.20;35.20;;;;;;;15.79;100.00;101112.94;5029870;28;20021;-77
2023/09/17 06:51:22;;;;;;;40.90;36.80;;;;;;;15.82;100.00;101113.50;5029089;28;20022;-83
2023/09/17 06:53:47;;;;;;;39.72;35.72;;;;;;;15.87;100.00;101118.38;5046480;28;20117;-77
2023/09/17 06:56:17;;;;;;;39.00;35.03;;;;;;;15.91;100.00;101117.97;5031081;28;20029;-82
2023/09/17 06:58:43;;;;;;;40.00;35.90;;;;;;;15.90;100.00;101118.09;5030469;28;20041;-77
2023/09/17 07:01:09;;;;;;;39.88;35.92;;;;;;;15.94;100.00;101122.97;5030370;28;20397;-77
2023/09/17 07:03:34;;;;;;;40.58;36.38;;;;;;;15.99;100.00;101114.59;5030924;28;20369;-78
2023/09/17 07:06:00;;;;;;;41.65;37.45;;;;;;;15.99;100.00;101125.22;5030610;28;20470;-77
2023/09/17 07:08:26;;;;;;;41.33;36.80;;;;;;;16.02;100.00;101124.13;5029421;28;20044;-77
2023/09/17 07:10:51;;;;;;;41.15;36.90;;;;;;;16.03;100.00;101121.31;5030047;28;20397;-77
2023/09/17 07:13:17;;;;;;;41.95;37.63;;;;;;;16.04;100.00;101123.00;5030025;28;20025;-77
2023/09/17 07:15:45;;;;;;;42.97;38.53;;;;;;;16.04;100.00;101122.16;5029414;28;20036;-77
2023/09/17 07:18:12;;;;;;;41.63;37.30;;;;;;;16.08;100.00;101118.25;5030970;28;20547;-77
2023/09/17 07:20:37;;;;;;;41.13;37.13;;;;;;;16.14;100.00;101115.00;5030664;28;20029;-77
2023/09/17 07:23:04;;;;;;;42.20;37.65;;;;;;;16.17;100.00;101112.91;5029767;28;20028;-77
2023/09/17 07:25:31;;;;;;;43.83;38.83;;;;;;;16.24;100.00;101113.16;5046337;28;20056;-82
2023/09/17 07:28:04;;;;;;;43.63;38.80;;;;;;;16.27;100.00;101102.25;5030521;28;20505;-77
2023/09/17 07:30:33;;;;;;;41.92;37.83;;;;;;;16.39;100.00;101100.25;5010143;28;20092;-81
2023/09/17 07:32:59;;;;;;;43.17;38.78;;;;;;;16.36;100.00;101101.38;5010729;28;20418;-83
2023/09/17 07:35:26;;;;;;;42.13;36.28;;;;;;;16.44;100.00;101108.66;5026075;28;20032;-77
2023/09/17 07:37:51;;;;;;;42.65;38.28;;;;;;;16.50;100.00;101114.22;5010209;28;20061;-76
2023/09/17 07:40:17;;;;;;;42.65;38.28;;;;;;;16.58;100.00;101110.81;5010711;28;20058;-77
2023/09/17 07:42:44;;;;;;;43.10;38.72;;;;;;;16.60;100.00;101115.00;5008381;28;20040;-82
2023/09/17 07:45:10;;;;;;;42.60;38.22;;;;;;;16.66;100.00;101107.47;5008928;28;20470;-77
2023/09/17 07:47:35;;;;;;;43.10;38.90;;;;;;;16.69;100.00;101105.34;5009909;28;20036;-82
2023/09/17 07:50:01;;;;;;;43.03;38.83;;;;;;;16.68;100.00;101109.00;5024514;28;20026;-79
2023/09/17 07:52:27;;;;;;;42.45;37.97;;;;;;;16.71;100.00;101113.19;5009890;28;20014;-81
2023/09/17 07:54:53;;;;;;;42.80;38.42;;;;;;;16.71;100.00;101108.69;5018501;28;20532;-77
2023/09/17 07:57:19;;;;;;;43.22;38.58;;;;;;;16.71;100.00;101123.81;5027355;28;20029;-77
2023/09/17 07:59:47;;;;;;;40.88;36.63;;;;;;;16.74;100.00;101121.69;5029342;28;20057;-77
2023/09/17 08:02:13;;;;;;;42.83;38.47;;;;;;;16.75;100.00;101123.34;5030540;28;20044;-77
2023/09/17 08:04:38;;;;;;;42.25;37.63;;;;;;;16.83;100.00;101133.28;5029782;28;20029;-77
2023/09/17 08:07:04;;;;;;;44.28;39.75;;;;;;;16.84;100.00;101126.97;5044583;28;20075;-77
2023/09/17 08:09:30;;;;;;;40.95;36.83;;;;;;;16.90;100.00;101126.38;5028991;28;20025;-79
2023/09/17 08:11:55;;;;;;;42.65;38.30;;;;;;;16.96;100.00;101140.91;5028849;28;20032;-76
2023/09/17 08:14:22;;;;;;;42.75;37.97;;;;;;;16.98;100.00;101131.81;5031478;28;20013;-80
2023/09/17 08:16:49;;;;;;;43.05;38.65;;;;;;;17.00;100.00;101131.66;5029851;28;20500;-76
2023/09/17 08:19:15;;;;;;;47.75;38.88;;;;;;;17.01;100.00;101128.84;5029488;28;20021;-76
2023/09/17 08:21:40;;;;;;;42.70;38.10;;;;;;;17.06;100.00;101129.22;5030316;28;20095;-80
2023/09/17 08:24:06;;;;;;;42.30;37.10;;;;;;;17.10;100.00;101129.78;5029944;28;20061;-76
2023/09/17 08:26:32;;;;;;;47.42;39.75;;;;;;;17.14;100.00;101134.63;5029096;28;20716;-80
2023/09/17 08:29:00;;;;;;;42.20;37.75;;;;;;;17.19;100.00;101131.53;5029710;28;20417;-76
2023/09/17 08:31:26;;;;;;;49.00;40.10;;;;;;;17.18;100.00;101127.19;5029721;28;20021;-80
2023/09/17 08:33:52;;;;;;;51.33;42.90;;;;;;;17.20;100.00;101130.53;5027919;28;20033;-76
2023/09/17 08:36:22;;;;;;;48.72;42.70;;;;;;;17.20;100.00;101135.84;5028474;28;20061;-77
2023/09/17 08:38:52;;;;;;;52.80;44.65;;;;;;;17.19;100.00;101136.84;5029071;28;20029;-77
2023/09/17 08:41:23;;;;;;;53.80;48.25;;;;;;;17.23;100.00;101132.94;5028366;28;20034;-81
2023/09/17 08:43:52;;;;;;;54.63;48.75;;;;;;;17.34;100.00;101126.56;5028926;28;20057;-77
2023/09/17 08:46:19;;;;;;;49.97;44.20;;;;;;;17.33;100.00;101132.84;5028169;28;20018;-81
2023/09/17 08:48:45;;;;;;;47.95;42.63;;;;;;;17.41;100.00;101130.28;5027567;28;20021;-77
2023/09/17 08:51:12;;;;;;;46.05;41.30;;;;;;;17.45;100.00;101131.66;5029637;28;20032;-77
2023/09/17 08:53:57;;;;;;;46.22;41.40;;;;;;;17.52;100.00;101148.69;5028415;28;20025;-81
2023/09/17 08:56:23;;;;;;;46.42;41.38;;;;;;;17.53;100.00;101140.53;5027582;28;20079;-81
2023/09/17 08:58:55;;;;;;;48.63;43.38;;;;;;;17.58;100.00;101147.22;5029099;28;20037;-76
2023/09/17 09:01:24;;;;;;;44.58;38.47;;;;;;;17.68;100.00;101154.22;5028132;28;20469;-76
2023/09/17 09:03:54;;;;;;;43.05;38.50;;;;;;;17.73;100.00;101151.91;5029900;28;20029;-80
2023/09/17 09:06:24;;;;;;;47.00;41.90;;;;;;;17.76;100.00;101156.09;5032763;28;20542;-76
2023/09/17 09:08:52;;;;;;;44.17;39.55;;;;;;;17.80;100.00;101163.63;5031788;28;20029;-76
2023/09/17 09:11:18;;;;;;;47.33;40.13;;;;;;;17.83;100.00;101165.97;5031837;28;20036;-76
2023/09/17 09:13:46;;;;;;;44.92;40.03;;;;;;;17.91;100.00;101169.69;5032924;28;20520;-77
2023/09/17 09:16:12;;;;;;;48.65;40.90;;;;;;;17.93;100.00;101168.56;5032175;28;20036;-76
2023/09/17 09:18:38;;;;;;;51.92;42.58;;;;;;;17.99;100.00;101175.09;5033019;28;20025;-77
2023/09/17 09:21:04;;;;;;;47.88;42.58;;;;;;;17.97;100.00;101167.25;5032737;28;20040;-77
2023/09/17 09:23:30;;;;;;;49.53;43.22;;;;;;;17.94;100.00;101174.72;5032362;28;20017;-77
2023/09/17 09:25:56;;;;;;;48.25;42.28;;;;;;;17.99;100.00;101167.94;5032606;28;20032;-77
2023/09/17 09:28:22;;;;;;;56.28;44.72;;;;;;;17.96;100.00;101156.75;5032460;28;20406;-77
2023/09/17 09:30:48;;;;;;;51.88;42.72;;;;;;;18.01;100.00;101160.66;5032036;28;20026;-77
2023/09/17 09:33:20;;;;;;;54.55;43.53;;;;;;;17.99;100.00;101159.94;5032974;28;20025;-76
2023/09/17 09:35:46;;;;;;;52.10;43.13;;;;;;;18.04;100.00;101156.84;5031789;28;20029;-80
2023/09/17 09:38:11;;;;;;;55.42;44.00;;;;;;;17.98;100.00;101154.78;5031497;28;20029;-77
2023/09/17 09:40:38;;;;;;;51.40;43.58;;;;;;;18.01;100.00;101149.16;5032859;28;20104;-76
2023/09/17 09:43:04;;;;;;;52.15;44.55;;;;;;;17.97;100.00;101148.63;5031478;28;20056;-77
2023/09/17 09:45:33;;;;;;;55.35;42.40;;;;;;;17.97;100.00;101143.28;5031569;28;20040;-77
2023/09/17 09:47:58;;;;;;;47.20;41.33;;;;;;;18.03;100.00;101147.19;5031374;28;20496;-80
2023/09/17 09:50:25;;;;;;;51.05;42.20;;;;;;;18.02;100.00;101156.19;5030932;28;20025;-80
2023/09/17 09:52:52;;;;;;;54.85;44.17;;;;;;;18.03;100.00;101150.69;5031457;28;20041;-80
2023/09/17 09:55:18;;;;;;;56.75;44.97;;;;;;;18.06;100.00;101147.72;5031330;28;20025;-80
2023/09/17 09:57:45;;;;;;;58.00;46.28;;;;;;;18.08;100.00;101148.41;5030716;28;20036;-80
2023/09/17 10:00:12;;;;;;;61.42;47.05;;;;;;;18.10;100.00;101146.41;5031984;28;20104;-76
2023/09/17 10:02:38;;;;;;;59.92;46.78;;;;;;;18.13;100.00;101138.13;5031510;28;20036;-77
2023/09/17 10:05:05;;;;;;;56.08;44.92;;;;;;;18.09;100.00;101143.91;5029281;28;20029;-80
2023/09/17 10:07:31;;;;;;;55.22;45.42;;;;;;;18.10;100.00;101143.75;5031013;28;20514;-77
2023/09/17 10:09:57;;;;;;;54.63;44.38;;;;;;;18.19;100.00;101146.47;5031145;28;20025;-77
2023/09/17 10:12:23;;;;;;;55.72;45.35;;;;;;;18.31;100.00;101140.72;5030995;28;20021;-77
2023/09/17 10:14:49;;;;;;;55.42;44.40;;;;;;;18.42;100.00;101142.31;5046959;28;20489;-77
2023/09/17 10:17:17;;;;;;;60.20;44.83;;;;;;;18.53;100.00;101143.88;5031961;28;20026;-80
2023/09/17 10:19:44;;;;;;;49.20;42.15;;;;;;;18.71;100.00;101132.16;5032149;28;20027;-77
2023/09/17 10:22:10;;;;;;;55.88;41.97;;;;;;;18.73;100.00;101137.34;5031622;28;20022;-80
2023/09/17 10:24:36;;;;;;;50.50;42.03;;;;;;;18.88;100.00;101126.91;5031806;28;20029;-77
2023/09/17 10:27:04;;;;;;;53.63;41.85;;;;;;;18.99;100.00;101129.28;5030737;28;20108;-80
2023/09/17 10:29:32;;;;;;;49.22;41.05;;;;;;;19.04;100.00;101125.13;5019596;28;20538;-79
2023/09/17 10:32:01;;;;;;;50.17;41.63;;;;;;;19.14;100.00;101122.31;5011030;28;20166;-79
2023/09/17 10:34:28;;;;;;;47.03;38.97;;;;;;;19.29;100.00;101130.56;5011962;28;20018;-79
2023/09/17 10:37:00;;;;;;;45.47;38.13;;;;;;;19.27;100.00;101133.41;5011547;28;20088;-77
2023/09/17 10:39:27;;;;;;;43.50;37.03;;;;;;;19.32;100.00;101131.06;5011554;28;20049;-78
2023/09/17 10:41:54;;;;;;;45.30;38.58;;;;;;;19.38;100.00;101124.22;5009832;28;20291;-76
2023/09/17 10:44:23;;;;;;;42.58;36.30;;;;;;;19.38;100.00;101124.22;5011301;28;20502;-79
2023/09/17 10:46:49;;;;;;;41.55;37.05;;;;;;;19.43;100.00;101121.91;5010508;28;20014;-77
2023/09/17 10:49:18;;;;;;;47.28;38.00;;;;;;;19.47;100.00;101119.75;5010702;28;20029;-76
2023/09/17 10:51:46;;;;;;;46.72;37.47;;;;;;;19.61;100.00;101119.13;5010938;28;20462;-79
2023/09/17 10:54:13;;;;;;;42.25;36.53;;;;;;;19.63;100.00;101115.31;5013113;28;20029;-76
2023/09/17 10:56:41;;;;;;;43.58;36.63;;;;;;;19.69;100.00;101109.31;5030532;28;20029;-76
2023/09/17 10:59:09;;;;;;;38.55;34.08;;;;;;;19.79;100.00;101110.97;5030434;28;20022;-76
2023/09/17 11:01:36;;;;;;;38.72;34.58;;;;;;;19.90;100.00;101114.13;5029802;28;20106;-76